createdAt,value
2019-05-19T00:01:36.792Z,79.23
2019-05-19T00:04:06.910Z,79.47
2019-05-19T00:06:36.863Z,79.34
2019-05-19T00:09:07.335Z,79.74
2019-05-19T00:11:37.250Z,79.66
2019-05-19T00:14:07.079Z,80.16
2019-05-19T00:16:36.994Z,80.16
2019-05-19T00:19:06.968Z,80.73
2019-05-19T00:21:36.859Z,80.22
2019-05-19T00:24:06.664Z,80.19
2019-05-19T00:26:36.342Z,80.16
2019-05-19T00:29:06.138Z,80.45
2019-05-19T00:31:35.808Z,81.06
2019-05-19T00:34:05.817Z,80.98
2019-05-19T00:36:35.461Z,81.67
2019-05-19T00:39:06.722Z,81.60
2019-05-19T00:41:36.356Z,82.09
2019-05-19T00:44:06.149Z,82.10
2019-05-19T00:46:36.081Z,82.39
2019-05-19T00:49:05.860Z,82.59
2019-05-19T00:51:36.149Z,83.25
2019-05-19T00:54:06.204Z,83.64
2019-05-19T00:56:36.633Z,83.91
2019-05-19T00:59:08.110Z,84.86
2019-05-19T01:01:37.859Z,84.76
2019-05-19T01:04:07.793Z,84.44
2019-05-19T01:06:37.617Z,84.60
2019-05-19T01:09:08.457Z,84.05
2019-05-19T01:11:38.205Z,83.03
2019-05-19T01:14:08.126Z,83.07
2019-05-19T01:16:37.887Z,83.23
2019-05-19T01:19:07.723Z,83.22
2019-05-19T01:21:39.298Z,82.52
2019-05-19T01:24:09.340Z,82.83
2019-05-19T01:26:39.112Z,82.72
2019-05-19T01:29:08.863Z,83.18
2019-05-19T01:31:38.713Z,84.22
2019-05-19T01:34:08.528Z,84.74
2019-05-19T01:36:38.353Z,85.43
2019-05-19T01:39:08.409Z,86.18
2019-05-19T01:41:38.152Z,86.01
2019-05-19T01:44:08.267Z,86.35
2019-05-19T01:46:37.853Z,86.13
2019-05-19T01:49:07.559Z,86.39
2019-05-19T01:51:37.441Z,86.61
2019-05-19T01:54:07.529Z,86.74
2019-05-19T01:56:40.228Z,87.37
2019-05-19T01:59:10.077Z,87.64
2019-05-19T02:01:39.969Z,87.93
2019-05-19T02:04:10.168Z,88.13
2019-05-19T02:06:39.979Z,88.32
2019-05-19T02:09:10.149Z,88.33
2019-05-19T02:11:39.955Z,88.70
2019-05-19T02:14:09.768Z,88.64
2019-05-19T02:16:40.086Z,88.81
2019-05-19T02:19:09.973Z,89.01
2019-05-19T02:21:39.769Z,89.36
2019-05-19T02:24:09.521Z,89.71
2019-05-19T02:26:39.291Z,90.00
2019-05-19T02:29:09.107Z,90.08
2019-05-19T02:31:38.724Z,90.11
2019-05-19T02:34:08.534Z,90.36
2019-05-19T02:36:38.312Z,90.60
2019-05-19T02:39:08.362Z,90.72
2019-05-19T02:41:40.286Z,91.11
2019-05-19T02:44:10.193Z,91.11
2019-05-19T02:46:40.986Z,91.12
2019-05-19T02:49:12.258Z,91.12
2019-05-19T02:51:43.462Z,91.26
2019-05-19T02:54:14.427Z,91.38
2019-05-19T02:56:47.185Z,91.21
2019-05-19T02:59:18.718Z,91.22
2019-05-19T03:02:08.170Z,91.26
2019-05-19T03:04:38.173Z,91.52
2019-05-19T03:07:08.208Z,91.49
2019-05-19T03:09:38.202Z,91.54
2019-05-19T03:12:08.201Z,91.57
2019-05-19T03:14:38.150Z,91.57
2019-05-19T03:17:08.140Z,91.60
2019-05-19T03:19:38.261Z,91.80
2019-05-19T03:22:08.242Z,91.91
2019-05-19T03:24:38.001Z,91.83
2019-05-19T03:27:07.854Z,91.55
2019-05-19T03:29:39.416Z,91.48
2019-05-19T03:32:19.799Z,91.34
2019-05-19T03:34:50.917Z,91.21
2019-05-19T03:37:20.997Z,91.25
2019-05-19T03:39:51.252Z,91.41
2019-05-19T03:42:21.562Z,91.53
2019-05-19T03:44:52.253Z,91.78
2019-05-19T03:47:22.971Z,91.84
2019-05-19T03:49:53.696Z,91.84
2019-05-19T03:52:24.160Z,91.89
2019-05-19T03:54:54.602Z,91.81
2019-05-19T03:57:25.306Z,91.91
2019-05-19T03:59:55.724Z,92.05
2019-05-19T04:02:26.572Z,91.92
2019-05-19T04:04:57.165Z,91.88
2019-05-19T04:07:27.828Z,92.15
2019-05-19T04:09:58.238Z,92.05
2019-05-19T04:12:28.777Z,92.04
2019-05-19T04:14:59.466Z,92.03
2019-05-19T04:17:29.940Z,92.26
2019-05-19T04:20:00.885Z,92.52
2019-05-19T04:22:31.611Z,92.59
2019-05-19T04:25:02.216Z,92.74
2019-05-19T04:27:32.548Z,92.75
2019-05-19T04:30:03.507Z,92.67
2019-05-19T04:32:34.119Z,92.70
2019-05-19T04:35:05.543Z,92.68
2019-05-19T04:37:36.182Z,92.40
2019-05-19T04:40:08.202Z,92.36
2019-05-19T04:42:38.741Z,92.33
2019-05-19T04:45:09.216Z,92.33
2019-05-19T04:47:39.645Z,92.49
2019-05-19T04:50:10.324Z,92.51
2019-05-19T04:52:40.821Z,92.55
2019-05-19T04:55:11.745Z,92.60
2019-05-19T04:57:42.155Z,92.53
2019-05-19T05:00:12.403Z,92.47
2019-05-19T05:02:42.774Z,92.53
2019-05-19T05:05:14.014Z,92.61
2019-05-19T05:07:44.585Z,92.26
2019-05-19T05:10:15.453Z,92.05
2019-05-19T05:12:46.008Z,92.18
2019-05-19T05:15:17.165Z,92.13
2019-05-19T05:17:47.907Z,91.94
2019-05-19T05:20:18.817Z,91.67
2019-05-19T05:22:49.201Z,91.47
2019-05-19T05:25:20.627Z,91.21
2019-05-19T05:27:51.715Z,90.73
2019-05-19T05:30:22.236Z,90.55
2019-05-19T05:32:52.690Z,90.13
2019-05-19T05:35:23.133Z,90.71
2019-05-19T05:37:53.684Z,90.83
2019-05-19T05:40:24.131Z,90.86
2019-05-19T05:42:55.292Z,91.05
2019-05-19T05:45:25.714Z,91.07
2019-05-19T05:47:56.466Z,91.02
2019-05-19T05:50:26.791Z,91.05
2019-05-19T05:52:57.462Z,91.09
2019-05-19T05:55:27.851Z,91.25
2019-05-19T05:57:58.165Z,91.42
2019-05-19T06:00:28.621Z,91.61
2019-05-19T06:02:58.747Z,91.77
2019-05-19T06:05:29.369Z,91.70
2019-05-19T06:08:00.106Z,91.70
2019-05-19T06:10:30.497Z,91.67
2019-05-19T06:13:00.933Z,91.84
2019-05-19T06:15:31.511Z,91.62
2019-05-19T06:18:01.867Z,91.58
2019-05-19T06:20:32.593Z,91.44
2019-05-19T06:23:03.128Z,91.09
2019-05-19T06:25:33.762Z,90.87
2019-05-19T06:28:04.475Z,90.93
2019-05-19T06:30:35.062Z,91.57
2019-05-19T06:33:05.699Z,91.56
2019-05-19T06:35:36.687Z,91.08
2019-05-19T06:38:07.597Z,90.89
2019-05-19T06:40:38.086Z,91.07
2019-05-19T06:43:08.679Z,90.94
2019-05-19T06:45:39.138Z,91.20
2019-05-19T06:48:09.579Z,91.06
2019-05-19T06:50:40.984Z,90.19
2019-05-19T06:53:14.487Z,90.40
2019-05-19T06:55:43.689Z,89.85
2019-05-19T06:58:14.114Z,90.17
2019-05-19T07:00:45.206Z,90.49
2019-05-19T07:03:15.543Z,90.66
2019-05-19T07:05:46.225Z,90.35
2019-05-19T07:08:16.827Z,89.82
2019-05-19T07:10:47.772Z,89.68
2019-05-19T07:13:18.159Z,88.74
2019-05-19T07:15:48.615Z,88.96
2019-05-19T07:18:19.262Z,89.29
2019-05-19T07:20:50.289Z,90.03
2019-05-19T07:23:28.314Z,89.89
2019-05-19T07:25:52.735Z,89.52
2019-05-19T07:28:23.691Z,88.70
2019-05-19T07:30:54.045Z,87.97
2019-05-19T07:33:24.321Z,88.64
2019-05-19T07:35:55.066Z,89.51
2019-05-19T07:38:25.354Z,89.57
2019-05-19T07:40:55.869Z,89.12
2019-05-19T07:43:26.381Z,88.43
2019-05-19T07:45:56.932Z,88.84
2019-05-19T07:48:27.384Z,89.20
2019-05-19T07:50:58.088Z,89.33
2019-05-19T07:53:42.212Z,89.90
2019-05-19T07:56:00.908Z,89.89
2019-05-19T07:58:31.450Z,89.83
2019-05-19T08:01:02.362Z,90.46
2019-05-19T08:03:32.901Z,90.25
2019-05-19T08:06:03.743Z,90.05
2019-05-19T08:08:34.264Z,90.06
2019-05-19T08:11:04.903Z,90.05
2019-05-19T08:13:35.889Z,89.97
2019-05-19T08:16:06.604Z,90.44
2019-05-19T08:18:37.376Z,91.03
2019-05-19T08:21:08.169Z,90.57
2019-05-19T08:23:38.513Z,90.74
2019-05-19T08:26:08.987Z,90.41
2019-05-19T08:28:39.545Z,90.56
2019-05-19T08:31:09.936Z,90.07
2019-05-19T08:33:40.313Z,89.26
2019-05-19T08:36:10.870Z,89.44
2019-05-19T08:38:41.044Z,88.72
2019-05-19T08:41:11.715Z,88.85
2019-05-19T08:43:42.262Z,88.88
2019-05-19T08:46:12.552Z,88.55
2019-05-19T08:48:42.839Z,89.24
2019-05-19T08:51:13.649Z,89.60
2019-05-19T08:53:44.072Z,89.08
2019-05-19T08:56:14.531Z,88.64
2019-05-19T08:58:45.131Z,89.03
2019-05-19T09:01:15.448Z,89.65
2019-05-19T09:03:46.485Z,89.53
2019-05-19T09:06:17.213Z,89.09
2019-05-19T09:08:47.803Z,89.00
2019-05-19T09:11:18.150Z,88.86
2019-05-19T09:13:48.675Z,88.69
2019-05-19T09:16:19.149Z,88.64
2019-05-19T09:18:50.071Z,88.98
2019-05-19T09:21:20.616Z,88.92
2019-05-19T09:23:51.058Z,88.01
2019-05-19T09:26:21.627Z,88.11
2019-05-19T09:28:52.121Z,87.66
2019-05-19T09:31:22.786Z,88.32
2019-05-19T09:33:53.321Z,88.54
2019-05-19T09:36:23.998Z,87.78
2019-05-19T09:38:55.037Z,87.67
2019-05-19T09:41:25.720Z,88.13
2019-05-19T09:43:56.061Z,88.43
2019-05-19T09:46:26.202Z,87.99
2019-05-19T09:49:13.866Z,88.71
2019-05-19T09:51:44.436Z,87.43
2019-05-19T09:54:14.714Z,86.12
2019-05-19T09:56:45.061Z,86.10
2019-05-19T09:59:15.787Z,85.53
2019-05-19T10:01:46.552Z,86.10
2019-05-19T10:04:17.219Z,84.81
2019-05-19T10:06:47.880Z,83.11
2019-05-19T10:09:27.675Z,83.48
2019-05-19T10:12:11.814Z,80.47
2019-05-19T10:14:42.237Z,80.80
2019-05-19T10:17:12.912Z,80.49
2019-05-19T10:19:43.522Z,79.19
2019-05-19T10:22:14.426Z,81.46
2019-05-19T10:24:57.847Z,79.10
2019-05-19T10:27:17.196Z,77.64
2019-05-19T10:29:47.526Z,79.61
2019-05-19T10:32:18.244Z,78.63
2019-05-19T10:34:48.909Z,77.09
2019-05-19T10:37:19.527Z,74.54
2019-05-19T10:39:49.889Z,76.29
2019-05-19T10:42:20.386Z,73.53
2019-05-19T10:44:51.238Z,71.22
2019-05-19T10:47:21.813Z,72.20
2019-05-19T10:49:52.326Z,71.37
2019-05-19T10:52:22.618Z,72.47
2019-05-19T10:54:53.043Z,71.87
2019-05-19T10:57:23.291Z,73.35
2019-05-19T10:59:53.838Z,72.01
2019-05-19T11:02:24.246Z,74.82
2019-05-19T11:04:54.579Z,71.61
2019-05-19T11:07:25.300Z,72.01
2019-05-19T11:09:55.921Z,69.49
2019-05-19T11:12:26.102Z,67.20
2019-05-19T11:14:56.534Z,66.27
2019-05-19T11:17:26.925Z,65.40
2019-05-19T11:19:57.310Z,66.14
2019-05-19T11:22:27.376Z,64.77
2019-05-19T11:24:58.095Z,67.91
2019-05-19T11:27:28.615Z,64.95
2019-05-19T11:29:58.801Z,60.51
2019-05-19T11:32:29.021Z,57.46
2019-05-19T11:34:59.265Z,54.97
2019-05-19T11:37:29.396Z,56.54
2019-05-19T11:39:59.560Z,55.17
2019-05-19T11:42:29.895Z,55.74
2019-05-19T11:45:00.034Z,54.00
2019-05-19T11:47:30.398Z,55.28
2019-05-19T11:50:00.850Z,53.21
2019-05-19T11:52:31.132Z,53.94
2019-05-19T11:55:01.707Z,52.93
2019-05-19T11:57:32.065Z,51.92
2019-05-19T12:00:02.277Z,52.17
2019-05-19T12:02:32.714Z,54.23
2019-05-19T12:05:02.887Z,54.71
2019-05-19T12:07:33.235Z,54.35
2019-05-19T12:10:03.704Z,54.12
2019-05-19T12:12:33.959Z,55.81
2019-05-19T12:15:04.912Z,56.20
2019-05-19T12:17:35.263Z,55.83
2019-05-19T12:20:06.166Z,55.13
2019-05-19T12:22:36.397Z,57.40
2019-05-19T12:25:07.283Z,58.00
2019-05-19T12:27:37.679Z,59.14
2019-05-19T12:30:09.573Z,62.64
2019-05-19T12:32:39.703Z,58.93
2019-05-19T12:35:10.099Z,58.40
2019-05-19T12:37:40.363Z,58.99
2019-05-19T12:40:11.788Z,59.59
2019-05-19T12:42:42.076Z,59.02
2019-05-19T12:45:13.204Z,60.69
2019-05-19T12:47:44.099Z,62.06
2019-05-19T12:50:15.059Z,61.47
2019-05-19T12:52:45.382Z,60.11
2019-05-19T12:55:15.806Z,58.59
2019-05-19T12:57:46.314Z,58.02
2019-05-19T13:00:17.096Z,53.02
2019-05-19T13:02:47.404Z,54.85
2019-05-19T13:05:17.695Z,54.77
2019-05-19T13:07:47.807Z,52.65
2019-05-19T13:10:18.322Z,54.10
2019-05-19T13:12:48.813Z,53.26
2019-05-19T13:15:19.126Z,52.56
2019-05-19T13:17:49.234Z,53.67
2019-05-19T13:20:19.565Z,53.37
2019-05-19T13:22:49.659Z,56.46
2019-05-19T13:25:19.868Z,58.03
2019-05-19T13:27:50.101Z,57.40
2019-05-19T13:30:20.209Z,54.33
2019-05-19T13:32:50.523Z,54.91
2019-05-19T13:35:20.961Z,54.04
2019-05-19T13:37:51.425Z,54.71
2019-05-19T13:40:21.823Z,52.81
2019-05-19T13:42:51.905Z,53.19
2019-05-19T13:45:22.247Z,53.58
2019-05-19T13:47:52.544Z,54.97
2019-05-19T13:50:22.902Z,54.75
2019-05-19T13:52:53.084Z,53.25
2019-05-19T13:55:23.540Z,53.67
2019-05-19T13:57:53.691Z,53.42
2019-05-19T14:00:23.957Z,52.59
2019-05-19T14:02:54.173Z,52.77
2019-05-19T14:05:24.522Z,51.94
2019-05-19T14:07:54.761Z,53.18
2019-05-19T14:10:25.063Z,53.40
2019-05-19T14:13:00.034Z,50.13
2019-05-19T14:15:30.090Z,45.46
2019-05-19T14:18:00.191Z,42.03
2019-05-19T14:20:30.688Z,39.60
2019-05-19T14:23:00.953Z,37.72
2019-05-19T14:25:31.273Z,38.69
2019-05-19T14:28:01.437Z,42.10
2019-05-19T14:30:33.208Z,47.86
2019-05-19T14:33:03.484Z,47.55
2019-05-19T14:35:33.882Z,49.19
2019-05-19T14:38:04.173Z,50.88
2019-05-19T14:40:34.373Z,47.40
2019-05-19T14:43:04.904Z,50.04
2019-05-19T14:45:36.940Z,51.44
2019-05-19T14:48:07.193Z,51.03
2019-05-19T14:50:37.509Z,49.76
2019-05-19T14:53:07.601Z,50.62
2019-05-19T14:55:37.924Z,49.93
2019-05-19T14:58:08.326Z,51.33
2019-05-19T15:00:38.620Z,52.60
2019-05-19T15:03:09.090Z,52.28
2019-05-19T15:05:39.415Z,52.08
2019-05-19T15:08:09.585Z,54.66
2019-05-19T15:10:39.682Z,53.99
2019-05-19T15:13:10.019Z,54.32
2019-05-19T15:15:40.223Z,53.49
2019-05-19T15:18:10.473Z,55.76
2019-05-19T15:20:40.829Z,56.34
2019-05-19T15:23:11.107Z,57.06
2019-05-19T15:25:41.268Z,56.24
2019-05-19T15:28:11.684Z,56.10
2019-05-19T15:30:41.720Z,55.12
2019-05-19T15:33:11.887Z,56.65
2019-05-19T15:35:41.984Z,60.10
2019-05-19T15:38:12.153Z,58.42
2019-05-19T15:40:42.354Z,56.70
2019-05-19T15:43:12.430Z,56.07
2019-05-19T15:45:42.532Z,57.58
2019-05-19T15:48:12.782Z,59.29
2019-05-19T15:50:42.962Z,59.78
2019-05-19T15:53:14.119Z,59.29
2019-05-19T15:55:44.269Z,59.12
2019-05-19T15:58:16.760Z,60.31
2019-05-19T16:00:46.602Z,59.26
2019-05-19T16:03:16.852Z,59.27
2019-05-19T16:05:47.015Z,58.09
2019-05-19T16:08:17.112Z,56.29
2019-05-19T16:10:47.420Z,56.42
2019-05-19T16:13:21.829Z,58.06
2019-05-19T16:15:49.985Z,57.82
2019-05-19T16:18:20.069Z,57.74
2019-05-19T16:20:49.994Z,57.41
2019-05-19T16:23:20.050Z,57.93
2019-05-19T16:25:50.079Z,58.33
2019-05-19T16:28:30.215Z,57.74
2019-05-19T16:30:51.883Z,59.36
2019-05-19T16:33:24.913Z,59.48
2019-05-19T16:35:55.439Z,59.33
2019-05-19T16:38:25.661Z,59.62
2019-05-19T16:40:55.920Z,61.23
2019-05-19T16:43:26.061Z,61.12
2019-05-19T16:45:56.579Z,62.64
2019-05-19T16:48:26.820Z,62.07
2019-05-19T16:50:57.075Z,61.19
2019-05-19T16:53:27.555Z,61.79
2019-05-19T16:55:57.760Z,62.16
2019-05-19T16:58:27.788Z,62.24
2019-05-19T17:00:58.991Z,61.98
2019-05-19T17:03:29.270Z,62.31
2019-05-19T17:05:59.513Z,61.46
2019-05-19T17:08:29.599Z,61.06
2019-05-19T17:11:00.080Z,61.99
2019-05-19T17:13:30.068Z,60.47
2019-05-19T17:16:00.320Z,61.50
2019-05-19T17:18:30.582Z,61.97
2019-05-19T17:21:01.713Z,62.41
2019-05-19T17:23:32.007Z,62.36
2019-05-19T17:26:02.085Z,62.04
2019-05-19T17:28:32.473Z,62.51
2019-05-19T17:31:02.679Z,62.57
2019-05-19T17:33:33.159Z,61.74
2019-05-19T17:36:03.395Z,60.38
2019-05-19T17:38:33.782Z,61.13
2019-05-19T17:41:04.304Z,61.08
2019-05-19T17:43:34.479Z,63.16
2019-05-19T17:46:04.985Z,63.48
2019-05-19T17:48:35.321Z,63.51
2019-05-19T17:51:06.244Z,64.92
2019-05-19T17:53:36.531Z,65.61
2019-05-19T17:56:06.992Z,66.85
2019-05-19T17:58:37.514Z,68.30
2019-05-19T18:01:07.784Z,69.18
2019-05-19T18:03:39.905Z,70.14
2019-05-19T18:06:10.375Z,71.40
2019-05-19T18:08:40.505Z,71.78
2019-05-19T18:11:10.885Z,72.21
2019-05-19T18:13:41.237Z,72.55
2019-05-19T18:16:11.557Z,72.47
2019-05-19T18:18:41.697Z,72.69
2019-05-19T18:21:11.876Z,73.29
2019-05-19T18:23:42.238Z,72.95
2019-05-19T18:26:13.069Z,73.42
2019-05-19T18:28:43.625Z,73.04
2019-05-19T18:31:14.421Z,72.38
2019-05-19T18:33:44.691Z,72.82
2019-05-19T18:36:15.079Z,73.12
2019-05-19T18:38:45.579Z,73.72
2019-05-19T18:41:15.768Z,72.79
2019-05-19T18:43:45.905Z,72.84
2019-05-19T18:46:16.353Z,73.35
2019-05-19T18:48:46.542Z,74.12
2019-05-19T18:51:16.802Z,74.64
2019-05-19T18:53:47.140Z,75.11
2019-05-19T18:56:17.435Z,75.94
2019-05-19T18:58:47.874Z,76.40
2019-05-19T19:01:18.492Z,76.81
2019-05-19T19:03:49.544Z,77.15
2019-05-19T19:06:20.498Z,77.45
2019-05-19T19:08:51.076Z,77.69
2019-05-19T19:11:21.777Z,77.93
2019-05-19T19:13:52.482Z,78.12
2019-05-19T19:16:22.653Z,78.40
2019-05-19T19:18:53.011Z,78.78
2019-05-19T19:21:23.636Z,79.07
2019-05-19T19:23:54.218Z,79.55
2019-05-19T19:26:24.630Z,79.94
2019-05-19T19:28:54.995Z,80.22
2019-05-19T19:31:25.501Z,80.61
2019-05-19T19:33:55.912Z,81.06
2019-05-19T19:36:26.496Z,81.35
2019-05-19T19:38:56.533Z,81.85
2019-05-19T19:41:26.385Z,82.17
2019-05-19T19:43:56.483Z,82.40
2019-05-19T19:46:27.005Z,82.61
2019-05-19T19:48:56.612Z,82.73
2019-05-19T19:51:26.334Z,82.58
2019-05-19T19:53:56.172Z,82.56
2019-05-19T19:56:25.977Z,82.73
2019-05-19T19:58:55.997Z,82.76
2019-05-19T20:01:25.679Z,82.89
2019-05-19T20:03:55.299Z,83.04
2019-05-19T20:06:24.864Z,83.27
2019-05-19T20:08:54.662Z,83.64
2019-05-19T20:11:24.352Z,84.07
2019-05-19T20:13:54.061Z,84.19
2019-05-19T20:16:23.767Z,84.20
2019-05-19T20:18:53.539Z,84.37
2019-05-19T20:21:23.380Z,84.56
2019-05-19T20:23:52.991Z,84.61
2019-05-19T20:26:22.764Z,84.50
2019-05-19T20:28:52.436Z,84.29
2019-05-19T20:31:22.118Z,84.41
2019-05-19T20:33:52.086Z,84.47
2019-05-19T20:36:21.859Z,84.28
2019-05-19T20:38:51.788Z,84.37
2019-05-19T20:41:21.727Z,84.73
2019-05-19T20:43:51.416Z,84.92
2019-05-19T20:46:21.088Z,85.06
2019-05-19T20:48:50.770Z,85.08
2019-05-19T20:51:20.459Z,85.14
2019-05-19T20:53:53.149Z,85.29
2019-05-19T20:56:21.694Z,85.30
2019-05-19T20:58:51.528Z,85.07
2019-05-19T21:01:21.296Z,85.08
2019-05-19T21:03:51.201Z,85.32
2019-05-19T21:06:20.785Z,85.54
2019-05-19T21:08:50.427Z,85.66
2019-05-19T21:11:20.415Z,85.77
2019-05-19T21:13:50.074Z,85.83
2019-05-19T21:16:19.794Z,85.85
2019-05-19T21:18:49.586Z,86.18
2019-05-19T21:21:19.422Z,86.66
2019-05-19T21:23:49.133Z,87.20
2019-05-19T21:26:19.001Z,87.54
2019-05-19T21:28:48.638Z,87.73
2019-05-19T21:31:18.441Z,87.89
2019-05-19T21:33:48.039Z,87.99
2019-05-19T21:36:17.676Z,88.12
2019-05-19T21:38:47.432Z,88.30
2019-05-19T21:41:17.082Z,88.30
2019-05-19T21:43:46.756Z,88.27
2019-05-19T21:46:16.553Z,88.11
2019-05-19T21:48:46.245Z,87.79
2019-05-19T21:51:15.902Z,87.56
2019-05-19T21:53:45.696Z,87.27
2019-05-19T21:56:15.600Z,87.08
2019-05-19T21:58:45.244Z,86.83
2019-05-19T22:01:23.154Z,86.70
2019-05-19T22:03:46.711Z,86.68
2019-05-19T22:06:19.567Z,86.70
2019-05-19T22:08:49.291Z,86.65
2019-05-19T22:11:19.039Z,86.85
2019-05-19T22:13:49.368Z,87.00
2019-05-19T22:16:19.274Z,86.95
2019-05-19T22:18:48.992Z,86.89
2019-05-19T22:21:18.666Z,87.04
2019-05-19T22:23:48.547Z,87.46
2019-05-19T22:26:18.205Z,87.54
2019-05-19T22:28:48.053Z,87.44
2019-05-19T22:31:17.826Z,87.44
2019-05-19T22:33:47.616Z,87.32
2019-05-19T22:36:17.476Z,86.97
2019-05-19T22:38:47.216Z,86.55
2019-05-19T22:41:17.188Z,86.12
2019-05-19T22:43:47.104Z,86.06
2019-05-19T22:46:16.856Z,85.76
2019-05-19T22:48:46.810Z,85.82
2019-05-19T22:51:16.522Z,85.96
2019-05-19T22:53:46.342Z,86.10
2019-05-19T22:56:16.113Z,86.20
2019-05-19T22:58:45.723Z,86.45
2019-05-19T23:01:15.425Z,86.87
2019-05-19T23:03:45.292Z,87.63
2019-05-19T23:06:14.997Z,88.25
2019-05-19T23:08:44.746Z,88.65
2019-05-19T23:11:14.538Z,88.93
2019-05-19T23:13:44.316Z,88.97
2019-05-19T23:16:14.060Z,88.72
2019-05-19T23:18:43.828Z,88.41
2019-05-19T23:21:13.740Z,88.21
2019-05-19T23:23:43.631Z,88.20
2019-05-19T23:26:13.727Z,88.18
2019-05-19T23:28:43.548Z,88.25
2019-05-19T23:31:13.524Z,88.58
2019-05-19T23:33:43.339Z,88.68
2019-05-19T23:36:12.954Z,89.17
2019-05-19T23:38:42.751Z,89.61
2019-05-19T23:41:12.696Z,89.97
2019-05-19T23:43:42.291Z,90.12
2019-05-19T23:46:12.151Z,90.34
2019-05-19T23:48:41.818Z,90.66
2019-05-19T23:51:11.564Z,90.72
2019-05-19T23:53:41.231Z,91.11
2019-05-19T23:56:11.189Z,91.20
2019-05-19T23:58:41.111Z,91.40
